• Join FlightAware (Why Join?)
  • Login
  • US Flag 
05:05AM EST


 

Airport Tracker/Info


-or-


 

Live Flight TrackerFlight Track Log ✈ BJS339 ✈ 25-Dec-2013 ✈ KSJC - KVNY

Flight Track Log - Related Links

Times and Time Zones

All times are in EST time to prevent confusion due to time zone crossing. See the BJS339 flight status page for this flight to view local times or setup timezone preferences in your user account.

Time Position Orientation Groundspeed Altitude Reporting Facility
EST Latitude Longitude Course Direction KTS MPH feet Rate Location/Type
10:43AM 37.4000 -121.9667 130° Southeast 210 242 2,300  Level Northern Cal TRACON
10:44AM 37.4333 -121.9333 38° Northeast 236 272 5,500 3,300 Climbing Northern Cal TRACON
10:45AM 37.3833 -121.8667 133° Southeast 279 321 9,000 3,420 Climbing Northern Cal TRACON
10:46AM 37.3486 -121.8186 132° Southeast 298 343 11,600 3,000 Climbing Oakland Center
10:47AM 37.2811 -121.7394 137° Southeast 335 386 14,400 3,120 Climbing Oakland Center
10:48AM 37.2039 -121.6489 137° Southeast 372 428 17,900 2,640 Climbing Oakland Center
10:49AM 36.9922 -121.5047 130° Southeast  Level Estimated
10:49AM 37.1222 -121.5544 137° Southeast 395 455 19,800  Level Oakland Center
10:50AM 37.0300 -121.4531 139° Southeast 425 489 22,200 2,160 Climbing Oakland Center
10:51AM 36.9369 -121.3525 139° Southeast 440 506 24,300 1,980 Climbing Oakland Center
10:52AM 36.8400 -121.2461 139° Southeast 459 528 26,200 1,320 Climbing Oakland Center
10:53AM 36.7292 -121.1269 139° Southeast 471 542 27,000 360 Climbing Oakland Center
10:54AM 36.6286 -121.0192 139° Southeast 476 548 27,000  Level Oakland Center
10:55AM 36.5308 -120.9114 138° Southeast 471 542 27,000  Level Oakland Center
10:56AM 36.4306 -120.8061 140° Southeast 472 543 27,000  Level Oakland Center
10:57AM 36.3303 -120.6975 139° Southeast 476 548 27,000  Level Oakland Center
10:58AM 36.2297 -120.5925 140° Southeast 474 545 27,000  Level Oakland Center
10:59AM 36.1300 -120.4861 139° Southeast 472 543 27,000  Level Oakland Center
11:00AM 36.0306 -120.3806 139° Southeast 470 541 27,000  Level Oakland Center
11:01AM 35.9294 -120.2747 140° Southeast 473 544 27,000  Level Oakland Center
11:02AM 35.8289 -120.1689 140° Southeast 473 544 27,000  Level Oakland Center
11:03AM 35.7278 -120.0636 140° Southeast 472 543 27,000  Level Oakland Center
11:04AM 35.6256 -119.9583 140° Southeast 473 544 27,000 -60 Level Oakland Center
11:05AM 35.5161 -119.8658 145° Southeast 474 545 26,900 -600 Descending Los Angeles Center
11:06AM 35.4078 -119.7725 145° Southeast 474 545 25,900 -1,080 Descending Los Angeles Center
11:07AM 35.3008 -119.6811 145° Southeast 467 537 24,800 -1,080 Descending Los Angeles Center
11:08AM 35.1942 -119.5897 145° Southeast 467 537 23,800 -1,080 Descending Los Angeles Center
11:09AM 35.0872 -119.4978 145° Southeast 468 539 22,700 -1,080 Descending Los Angeles Center
11:10AM 34.9800 -119.4061 145° Southeast 469 540 21,700 -1,500 Descending Los Angeles Center
11:11AM 34.8731 -119.3147 145° Southeast 470 541 19,700 -2,220 Descending Los Angeles Center
11:12AM 34.7675 -119.2281 146° Southeast 461 531 17,300 -2,400 Descending Los Angeles Center
11:13AM 34.6692 -119.1431 145° Southeast 443 510 14,900 -2,280 Descending Los Angeles Center
11:14AM 34.5681 -119.0567 145° Southeast 426 490 12,700 -2,100 Descending Los Angeles Center
11:15AM 34.4769 -118.9833 146° Southeast 382 440 10,700 -1,740 Descending Los Angeles Center
11:17AM 34.4056 -118.9228 145° Southeast 307 353 9,200 -1,500 Descending Los Angeles Center
11:18AM 34.3394 -118.8636 144° Southeast 294 338 7,700 -1,920 Descending Los Angeles Center
11:19AM 34.2733 -118.7858 136° Southeast 275 316 5,300 -1,380 Descending Los Angeles Center
11:20AM 34.2389 -118.7264 125° Southeast 239 275 4,900 -660 Descending Los Angeles Center
11:21AM 34.2108 -118.6567 116° Southeast 231 266 4,000 -900 Descending Los Angeles Center
11:21AM 34.2000 -118.6167 108° East 202 232 3,400 -1,140 Descending Southern California TRACON
11:22AM 34.1667 -118.5667 129° Southeast 181 208 2,200 -1,020 Descending Southern California TRACON
11:23AM 34.1667 -118.5000 90° East 161 185 1,400 -780 Descending Southern California TRACON
11:27AM 34.2000 -118.4833 180° South  Level FlightAware Approximate